Time;durP1;ratioP1;P1;durP2;ratioP2;P2;SDS_P1;SDS_P2;PMS_P1;PMS_P2;Temp;Humidity;BMP_temperature;BMP_pressure;BME280_temperature;BME280_humidity;BME280_pressure;Samples;Min_cycle;Max_cycle;Signal;HPM_P1;HPM_P2
2021/01/10 00:00:19;;;;;;;17.98;8.18;;;2.10;92.60;;;;;;5070667;28;20111;-71
2021/01/10 00:02:46;;;;;;;11.55;7.05;;;2.10;92.70;;;;;;5071626;28;20040;-69
2021/01/10 00:05:17;;;;;;;18.73;7.75;;;2.00;92.70;;;;;;5071301;28;20032;-69
2021/01/10 00:07:42;;;;;;;11.25;8.15;;;2.00;92.70;;;;;;5070989;28;20040;-71
2021/01/10 00:10:09;;;;;;;12.70;8.15;;;2.00;92.70;;;;;;5069674;28;20485;-71
2021/01/10 00:12:35;;;;;;;14.32;8.15;;;2.00;92.80;;;;;;5070456;28;20380;-70
2021/01/10 00:15:00;;;;;;;14.20;9.23;;;1.90;92.70;;;;;;5070489;28;20052;-71
2021/01/10 00:17:26;;;;;;;18.15;8.75;;;1.90;92.70;;;;;;5071804;28;20473;-72
2021/01/10 00:19:51;;;;;;;15.85;9.45;;;1.90;92.70;;;;;;5075059;28;20032;-69
2021/01/10 00:22:19;;;;;;;15.15;9.10;;;1.80;92.70;;;;;;5072803;28;20021;-70
2021/01/10 00:24:45;;;;;;;21.65;11.05;;;1.80;92.80;;;;;;5075050;28;20086;-70
2021/01/10 00:27:13;;;;;;;16.08;10.50;;;1.70;92.90;;;;;;5074335;28;20029;-70
2021/01/10 00:29:41;;;;;;;21.60;10.63;;;1.70;93.00;;;;;;5073116;28;20055;-70
2021/01/10 00:32:07;;;;;;;21.23;10.90;;;1.70;93.00;;;;;;5075776;28;20451;-70
2021/01/10 00:34:32;;;;;;;19.48;10.57;;;1.70;93.10;;;;;;5083401;28;20071;-69
2021/01/10 00:36:58;;;;;;;18.40;10.32;;;1.60;93.10;;;;;;5094474;28;20099;-70
2021/01/10 00:39:24;;;;;;;17.80;10.27;;;1.60;93.10;;;;;;5079397;28;20032;-70
2021/01/10 00:41:50;;;;;;;17.17;10.77;;;1.50;93.20;;;;;;5073344;28;20033;-70
2021/01/10 00:44:16;;;;;;;20.02;9.82;;;1.50;93.30;;;;;;5074551;28;20103;-71
2021/01/10 00:46:41;;;;;;;13.10;9.38;;;1.50;93.40;;;;;;5074988;28;20365;-69
2021/01/10 00:49:07;;;;;;;16.92;9.10;;;1.50;93.40;;;;;;5083411;28;20031;-70
2021/01/10 00:51:33;;;;;;;20.52;9.52;;;1.50;93.40;;;;;;5095076;28;20100;-68
2021/01/10 00:53:58;;;;;;;15.30;9.43;;;1.40;93.40;;;;;;5093439;28;20488;-71
2021/01/10 00:56:24;;;;;;;19.85;9.68;;;1.40;93.40;;;;;;5094033;28;20044;-69
2021/01/10 00:58:49;;;;;;;15.30;9.52;;;1.40;93.40;;;;;;5094714;28;20031;-69
2021/01/10 01:01:15;;;;;;;16.25;9.70;;;1.40;93.40;;;;;;5077525;28;20113;-68
2021/01/10 01:03:42;;;;;;;14.85;9.88;;;1.40;93.50;;;;;;5073701;28;20115;-69
2021/01/10 01:06:11;;;;;;;19.05;10.27;;;1.30;93.50;;;;;;5073029;28;20029;-68
2021/01/10 01:08:37;;;;;;;12.85;9.35;;;1.30;93.50;;;;;;5074472;28;20031;-68
2021/01/10 01:11:03;;;;;;;18.25;10.27;;;1.30;93.50;;;;;;5073467;28;20020;-68
2021/01/10 01:13:28;;;;;;;16.60;9.35;;;1.20;93.50;;;;;;5074013;28;20050;-69
2021/01/10 01:15:54;;;;;;;14.38;10.70;;;1.20;93.50;;;;;;5073321;28;20499;-68
2021/01/10 01:18:19;;;;;;;18.13;10.30;;;1.20;93.60;;;;;;5073201;28;20114;-71
2021/01/10 01:20:45;;;;;;;20.75;11.52;;;1.20;93.70;;;;;;5074035;28;20078;-70
2021/01/10 01:23:11;;;;;;;22.38;11.38;;;1.20;93.80;;;;;;5073713;28;20017;-70
2021/01/10 01:25:37;;;;;;;16.92;11.13;;;1.20;93.90;;;;;;5073382;28;20038;-69
2021/01/10 01:28:03;;;;;;;20.02;10.85;;;1.20;94.00;;;;;;5072405;28;20357;-69
2021/01/10 01:30:29;;;;;;;15.82;10.65;;;1.20;94.00;;;;;;5073973;28;20468;-69
2021/01/10 01:32:55;;;;;;;19.73;11.88;;;1.20;94.00;;;;;;5073280;28;20071;-69
2021/01/10 01:35:20;;;;;;;21.85;11.55;;;1.20;94.00;;;;;;5073462;28;20396;-67
2021/01/10 01:37:46;;;;;;;16.67;10.75;;;1.20;94.00;;;;;;5073761;28;20104;-68
2021/01/10 01:40:12;;;;;;;18.55;12.00;;;1.20;94.00;;;;;;5072994;28;20345;-69
2021/01/10 01:42:37;;;;;;;17.35;10.68;;;1.20;94.00;;;;;;5074025;28;20039;-70
2021/01/10 01:45:05;;;;;;;15.65;11.43;;;1.20;94.00;;;;;;5071301;28;20020;-71
2021/01/10 01:47:32;;;;;;;17.58;10.93;;;1.20;94.00;;;;;;5071638;28;20388;-70
2021/01/10 01:49:57;;;;;;;21.08;11.93;;;1.20;94.00;;;;;;5069855;28;20031;-70
2021/01/10 01:52:23;;;;;;;19.60;12.25;;;1.20;94.00;;;;;;5070991;28;20040;-71
2021/01/10 01:54:49;;;;;;;28.20;12.50;;;1.20;94.00;;;;;;5071586;28;20037;-68
2021/01/10 01:57:14;;;;;;;18.42;11.45;;;1.20;94.10;;;;;;5070065;28;20476;-70
2021/01/10 01:59:40;;;;;;;20.40;11.80;;;1.20;94.10;;;;;;5071908;28;20380;-70
2021/01/10 02:02:06;;;;;;;20.70;12.32;;;1.20;94.20;;;;;;5073052;28;20133;-70
2021/01/10 02:04:48;;;;;;;19.08;12.18;;;1.20;94.10;;;;;;5073416;28;20024;-71
2021/01/10 02:07:24;;;;;;;16.88;11.93;;;1.20;94.10;;;;;;5072267;28;20021;-70
2021/01/10 02:10:01;;;;;;;24.83;13.25;;;1.10;94.10;;;;;;5072988;28;20082;-70
2021/01/10 02:12:29;;;;;;;21.17;12.55;;;1.10;94.20;;;;;;5072758;28;20021;-71
2021/01/10 02:15:00;;;;;;;22.08;13.70;;;1.10;94.20;;;;;;5072028;28;20036;-69
2021/01/10 02:17:28;;;;;;;21.55;14.18;;;1.10;94.30;;;;;;5072965;28;20050;-71
2021/01/10 02:20:12;;;;;;;23.75;13.00;;;1.10;94.40;;;;;;5072687;28;20107;-69
2021/01/10 02:22:59;;;;;;;15.85;11.93;;;1.10;94.50;;;;;;5073037;28;20028;-70
2021/01/10 02:25:25;;;;;;;17.90;12.35;;;1.20;94.50;;;;;;5071612;28;20060;-71
2021/01/10 02:27:51;;;;;;;19.23;12.32;;;1.20;94.50;;;;;;5070907;28;20066;-69
2021/01/10 02:30:19;;;;;;;23.90;13.15;;;1.20;94.40;;;;;;5072415;28;20036;-68
2021/01/10 02:32:50;;;;;;;21.52;13.52;;;1.20;94.30;;;;;;5071446;28;20028;-70
2021/01/10 02:35:16;;;;;;;19.50;12.70;;;1.20;94.40;;;;;;5071664;28;20040;-70
2021/01/10 02:37:53;;;;;;;28.20;12.95;;;1.10;94.40;;;;;;5072808;28;20480;-71
2021/01/10 02:40:36;;;;;;;20.70;11.27;;;1.20;94.40;;;;;;5071736;28;20491;-71
2021/01/10 02:43:09;;;;;;;19.75;11.80;;;1.10;94.30;;;;;;5071892;28;20427;-70
2021/01/10 02:45:37;;;;;;;18.67;11.45;;;1.10;94.30;;;;;;5071751;28;20029;-71
2021/01/10 02:48:02;;;;;;;22.52;13.38;;;1.10;94.30;;;;;;5072515;28;20032;-72
2021/01/10 02:50:29;;;;;;;20.60;12.63;;;1.10;94.30;;;;;;5071503;28;20032;-72
2021/01/10 02:52:55;;;;;;;15.27;11.77;;;1.10;94.30;;;;;;5072457;28;20099;-70
2021/01/10 02:55:21;;;;;;;19.23;12.50;;;1.00;94.20;;;;;;5071519;28;20112;-69
2021/01/10 02:57:55;;;;;;;18.65;13.80;;;1.00;94.20;;;;;;5072342;28;20024;-68
2021/01/10 03:00:23;;;;;;;24.50;14.20;;;1.00;94.20;;;;;;5070863;28;20062;-70
2021/01/10 03:02:50;;;;;;;23.48;12.23;;;1.00;94.30;;;;;;5071633;28;20024;-69
2021/01/10 03:05:16;;;;;;;20.52;13.30;;;1.00;94.20;;;;;;5072248;28;20021;-68
2021/01/10 03:07:43;;;;;;;18.58;11.82;;;1.00;94.30;;;;;;5071097;28;20070;-70
2021/01/10 03:10:10;;;;;;;22.02;12.75;;;0.90;94.30;;;;;;5071148;28;20067;-69
2021/01/10 03:12:36;;;;;;;16.55;12.02;;;0.90;94.30;;;;;;5071096;28;20032;-69
2021/01/10 03:15:03;;;;;;;19.40;13.23;;;0.90;94.30;;;;;;5071856;28;20044;-69
2021/01/10 03:17:41;;;;;;;25.20;13.98;;;0.90;94.30;;;;;;5053534;28;20067;-69
2021/01/10 03:20:18;;;;;;;21.48;12.20;;;0.90;94.30;;;;;;5071732;28;20032;-67
2021/01/10 03:22:47;;;;;;;17.98;11.43;;;0.90;94.30;;;;;;5072303;28;20472;-71
2021/01/10 03:25:15;;;;;;;20.02;12.85;;;0.90;94.40;;;;;;5071102;28;20050;-70
2021/01/10 03:27:41;;;;;;;14.05;11.25;;;0.90;94.30;;;;;;5072056;28;20021;-70
2021/01/10 03:30:09;;;;;;;18.33;11.85;;;0.80;94.30;;;;;;5070231;28;20025;-71
2021/01/10 03:32:34;;;;;;;20.58;12.30;;;0.80;94.30;;;;;;5070245;28;20120;-71
2021/01/10 03:35:00;;;;;;;18.80;11.88;;;0.80;94.30;;;;;;5071860;28;20171;-70
2021/01/10 03:37:26;;;;;;;18.15;12.15;;;0.90;94.40;;;;;;5071750;28;20035;-69
2021/01/10 03:39:53;;;;;;;24.33;12.35;;;0.90;94.50;;;;;;5070249;28;20025;-69
2021/01/10 03:42:21;;;;;;;19.27;12.77;;;1.00;94.50;;;;;;5071802;28;20021;-70
2021/01/10 03:44:46;;;;;;;19.70;12.43;;;1.00;94.40;;;;;;5071266;28;20028;-70
2021/01/10 03:47:12;;;;;;;20.00;11.98;;;1.10;94.40;;;;;;5071714;28;20025;-69
2021/01/10 03:49:37;;;;;;;20.23;12.40;;;1.20;94.40;;;;;;5071836;28;20021;-68
2021/01/10 03:52:03;;;;;;;20.05;13.35;;;1.30;94.40;;;;;;5072722;28;20028;-69
2021/01/10 03:54:28;;;;;;;23.05;12.70;;;1.30;94.30;;;;;;5075874;28;20031;-70
2021/01/10 03:56:54;;;;;;;20.85;12.40;;;1.30;94.20;;;;;;5075651;28;20101;-69
2021/01/10 03:59:19;;;;;;;18.23;12.15;;;1.40;94.20;;;;;;5074697;28;20028;-70
2021/01/10 04:01:45;;;;;;;20.00;12.32;;;1.40;94.10;;;;;;5074431;28;20445;-68
2021/01/10 04:04:10;;;;;;;16.42;11.98;;;1.40;94.10;;;;;;5073954;28;20047;-68
2021/01/10 04:06:36;;;;;;;24.13;13.82;;;1.40;94.10;;;;;;5074940;28;20025;-71
2021/01/10 04:09:02;;;;;;;18.17;11.93;;;1.50;94.10;;;;;;5075301;28;20020;-69
2021/01/10 04:11:27;;;;;;;18.17;12.80;;;1.50;94.10;;;;;;5075256;28;20056;-68
2021/01/10 04:13:53;;;;;;;20.77;12.82;;;1.50;94.00;;;;;;5074598;28;20048;-69
2021/01/10 04:16:19;;;;;;;17.17;12.52;;;1.50;94.00;;;;;;5074936;28;20091;-70
2021/01/10 04:18:44;;;;;;;24.67;12.65;;;1.60;94.00;;;;;;5075400;28;20020;-68
2021/01/10 04:21:10;;;;;;;23.20;12.63;;;1.50;93.90;;;;;;5074443;28;20492;-69
2021/01/10 04:23:35;;;;;;;18.63;12.45;;;1.50;93.90;;;;;;5075328;28;20024;-71
2021/01/10 04:26:01;;;;;;;19.02;12.15;;;1.50;94.00;;;;;;5075002;28;20031;-69
2021/01/10 04:28:26;;;;;;;21.10;12.98;;;1.50;94.00;;;;;;5074265;28;20031;-69
2021/01/10 04:30:52;;;;;;;22.42;12.77;;;1.50;94.00;;;;;;5075063;28;20089;-68
2021/01/10 04:33:18;;;;;;;19.42;12.27;;;1.50;93.90;;;;;;5073739;28;20028;-69
2021/01/10 04:35:43;;;;;;;19.02;12.13;;;1.60;93.90;;;;;;5073108;28;20043;-68
2021/01/10 04:38:09;;;;;;;17.17;11.55;;;1.60;93.80;;;;;;5073346;28;20021;-68
2021/01/10 04:40:34;;;;;;;20.90;12.73;;;1.60;93.80;;;;;;5074960;28;20115;-69
2021/01/10 04:43:00;;;;;;;17.58;12.32;;;1.50;93.80;;;;;;5074065;28;20120;-69
2021/01/10 04:45:26;;;;;;;21.63;11.68;;;1.50;93.90;;;;;;5074753;28;20024;-69
2021/01/10 04:47:52;;;;;;;17.00;11.77;;;1.40;93.90;;;;;;5074086;28;20025;-69
2021/01/10 04:50:18;;;;;;;20.77;12.00;;;1.40;93.90;;;;;;5074479;28;20032;-69
2021/01/10 04:52:45;;;;;;;19.98;11.98;;;1.40;94.00;;;;;;5075024;28;20500;-70
2021/01/10 04:55:12;;;;;;;20.95;13.60;;;1.30;94.00;;;;;;5073644;28;20457;-69
2021/01/10 04:57:40;;;;;;;20.88;12.52;;;1.30;94.10;;;;;;5074705;28;20028;-69
2021/01/10 05:00:10;;;;;;;20.52;12.50;;;1.30;94.10;;;;;;5074116;28;20126;-69
2021/01/10 05:02:47;;;;;;;23.38;12.35;;;1.30;94.10;;;;;;5073993;28;20464;-71
2021/01/10 05:05:14;;;;;;;16.80;12.07;;;1.30;94.00;;;;;;5073834;28;20533;-70
2021/01/10 05:07:42;;;;;;;21.60;11.38;;;1.30;94.00;;;;;;5074624;28;20070;-70
2021/01/10 05:10:08;;;;;;;19.92;10.88;;;1.20;94.00;;;;;;5073190;28;20032;-68
2021/01/10 05:12:33;;;;;;;14.98;11.27;;;1.20;94.00;;;;;;5074752;28;20028;-70
2021/01/10 05:14:59;;;;;;;19.60;11.60;;;1.20;94.00;;;;;;5074044;28;20412;-69
2021/01/10 05:17:24;;;;;;;17.98;10.85;;;1.10;94.00;;;;;;5073505;28;20064;-70
2021/01/10 05:19:51;;;;;;;17.50;11.40;;;1.10;94.00;;;;;;5074188;28;20021;-70
2021/01/10 05:22:20;;;;;;;18.60;11.50;;;1.00;94.00;;;;;;5073861;28;20027;-71
2021/01/10 05:24:48;;;;;;;19.90;12.20;;;1.00;94.00;;;;;;5073330;28;20032;-69
2021/01/10 05:27:14;;;;;;;18.80;12.27;;;1.00;94.10;;;;;;5073898;28;20020;-69
2021/01/10 05:29:46;;;;;;;17.90;11.77;;;0.90;94.10;;;;;;5074179;28;20029;-69
2021/01/10 05:32:12;;;;;;;19.90;11.88;;;0.90;94.10;;;;;;5073227;28;20070;-69
2021/01/10 05:34:37;;;;;;;16.42;11.35;;;0.90;94.10;;;;;;5073972;28;22392;-69
2021/01/10 05:37:14;;;;;;;21.38;12.27;;;0.80;94.30;;;;;;5071976;28;20116;-69
2021/01/10 05:39:44;;;;;;;17.75;11.15;;;0.80;94.10;;;;;;5073740;28;20028;-69
2021/01/10 05:42:10;;;;;;;19.05;11.32;;;0.80;94.10;;;;;;5073635;28;20024;-70
2021/01/10 05:44:39;;;;;;;16.88;11.57;;;0.80;94.20;;;;;;5073237;28;20020;-70
2021/01/10 05:47:06;;;;;;;18.27;11.38;;;0.80;94.30;;;;;;5073351;28;20569;-69
2021/01/10 05:49:32;;;;;;;17.73;10.90;;;1.00;94.30;;;;;;5073655;28;20461;-71
2021/01/10 05:52:07;;;;;;;20.73;12.43;;;1.10;94.30;;;;;;5072886;28;20440;-70
2021/01/10 05:54:41;;;;;;;20.95;11.52;;;1.20;94.20;;;;;;5073791;28;20059;-68
2021/01/10 05:57:11;;;;;;;23.38;12.18;;;1.30;94.10;;;;;;5073138;28;20381;-67
2021/01/10 06:00:05;;;;;;;20.70;13.57;;;1.40;94.00;;;;;;5072965;28;20023;-68
2021/01/10 06:02:35;;;;;;;18.38;11.52;;;1.50;94.00;;;;;;5071913;28;20033;-68
2021/01/10 06:05:27;;;;;;;19.05;12.73;;;1.50;93.80;;;;;;5073171;28;20055;-68
2021/01/10 06:07:52;;;;;;;13.70;9.18;;;1.50;93.80;;;;;;5071059;28;20036;-69
2021/01/10 06:10:26;;;;;;;20.13;12.13;;;1.50;93.80;;;;;;5072929;28;20028;-70
2021/01/10 06:13:06;;;;;;;23.13;11.88;;;1.50;93.80;;;;;;5072576;28;20021;-69
2021/01/10 06:15:33;;;;;;;17.98;11.65;;;1.60;93.80;;;;;;5072122;28;20102;-70
2021/01/10 06:18:01;;;;;;;18.00;11.27;;;1.70;93.90;;;;;;5072969;28;20024;-69
2021/01/10 06:20:31;;;;;;;17.70;11.00;;;1.70;93.80;;;;;;5071960;28;20115;-68
2021/01/10 06:22:59;;;;;;;20.05;12.95;;;1.80;93.80;;;;;;5072831;28;20012;-70
2021/01/10 06:25:29;;;;;;;21.05;11.55;;;1.90;93.80;;;;;;5073109;28;20024;-70
2021/01/10 06:28:09;;;;;;;19.83;11.68;;;2.00;93.80;;;;;;5071887;28;20028;-70
2021/01/10 06:30:37;;;;;;;17.40;11.35;;;2.10;93.70;;;;;;5071571;28;20017;-70
2021/01/10 06:33:06;;;;;;;17.67;11.57;;;2.10;93.70;;;;;;5072710;28;20020;-70
2021/01/10 06:35:36;;;;;;;21.95;11.90;;;2.20;93.70;;;;;;5072135;28;20500;-70
2021/01/10 06:38:05;;;;;;;15.60;10.93;;;2.20;93.70;;;;;;5072640;28;20017;-70
2021/01/10 06:40:35;;;;;;;19.00;11.73;;;2.30;93.70;;;;;;5071897;28;20020;-70
2021/01/10 06:43:03;;;;;;;19.67;10.75;;;2.30;93.60;;;;;;5072575;28;20063;-69
2021/01/10 06:45:39;;;;;;;20.17;11.70;;;2.40;93.60;;;;;;5072730;28;20021;-71
2021/01/10 06:48:09;;;;;;;22.10;12.38;;;2.40;93.60;;;;;;5071593;28;20500;-70
2021/01/10 06:50:36;;;;;;;19.58;11.55;;;2.40;93.60;;;;;;5071558;28;20025;-70
2021/01/10 06:53:13;;;;;;;20.13;12.80;;;2.50;93.50;;;;;;5072431;28;20112;-69
2021/01/10 06:55:43;;;;;;;19.85;12.05;;;2.50;93.50;;;;;;5071727;28;20040;-69
2021/01/10 06:58:10;;;;;;;19.23;10.98;;;2.50;93.50;;;;;;5071996;28;20108;-71
2021/01/10 07:00:55;;;;;;;18.23;11.52;;;2.60;93.50;;;;;;5072420;28;20099;-70
2021/01/10 07:03:22;;;;;;;17.05;11.70;;;2.60;93.50;;;;;;5071489;28;20028;-69
2021/01/10 07:05:57;;;;;;;22.17;12.23;;;2.60;93.40;;;;;;5072778;28;20031;-71
2021/01/10 07:08:37;;;;;;;15.48;11.63;;;2.60;93.30;;;;;;5072124;28;20048;-71
2021/01/10 07:11:23;;;;;;;19.60;11.70;;;2.70;93.30;;;;;;5071047;28;20028;-69
2021/01/10 07:14:01;;;;;;;17.15;11.75;;;2.60;93.30;;;;;;5070946;28;20476;-71
2021/01/10 07:16:27;;;;;;;16.60;10.85;;;2.60;93.30;;;;;;5071092;28;20060;-70
2021/01/10 07:18:54;;;;;;;16.13;11.02;;;2.60;93.30;;;;;;5072116;28;20039;-68
2021/01/10 07:21:45;;;;;;;18.70;11.23;;;2.60;93.30;;;;;;5072026;28;20032;-69
2021/01/10 07:24:16;;;;;;;14.60;10.90;;;2.60;93.30;;;;;;5071128;28;20048;-70
2021/01/10 07:26:52;;;;;;;16.92;12.10;;;2.60;93.40;;;;;;5071884;28;20020;-70
2021/01/10 07:29:31;;;;;;;17.70;10.95;;;2.50;93.50;;;;;;5070574;28;20025;-70
2021/01/10 07:32:02;;;;;;;18.17;10.82;;;2.60;93.60;;;;;;5071567;28;20103;-72
2021/01/10 07:34:29;;;;;;;14.53;10.50;;;2.60;93.50;;;;;;5071492;28;20028;-71
2021/01/10 07:37:01;;;;;;;16.63;10.88;;;2.60;93.50;;;;;;5066426;28;20353;-71
2021/01/10 07:39:29;;;;;;;14.25;11.55;;;2.60;93.50;;;;;;5070720;28;20544;-72
2021/01/10 07:42:12;;;;;;;16.13;10.60;;;2.70;93.50;;;;;;5070855;28;20791;-72
2021/01/10 07:44:54;;;;;;;18.10;11.77;;;2.60;93.50;;;;;;5069403;28;20029;-70
2021/01/10 07:47:31;;;;;;;16.20;11.90;;;2.70;93.50;;;;;;5070310;28;20388;-73
2021/01/10 07:50:16;;;;;;;21.30;11.18;;;2.70;93.50;;;;;;5071513;28;20350;-72
2021/01/10 07:52:41;;;;;;;19.92;10.98;;;2.70;93.50;;;;;;5070927;28;20032;-71
2021/01/10 07:55:18;;;;;;;15.45;11.70;;;2.70;93.50;;;;;;5070501;28;20051;-70
2021/01/10 07:57:51;;;;;;;16.38;11.70;;;2.70;93.60;;;;;;5071227;28;20025;-70
2021/01/10 08:00:16;;;;;;;18.17;11.73;;;2.70;93.60;;;;;;5071106;28;20100;-70
2021/01/10 08:02:54;;;;;;;57.80;15.85;;;2.70;93.60;;;;;;5071857;28;20441;-71
2021/01/10 08:05:21;;;;;;;17.88;12.85;;;2.70;93.60;;;;;;5069335;28;20029;-71
2021/01/10 08:07:53;;;;;;;18.05;12.95;;;2.70;93.70;;;;;;5071387;28;20035;-71
2021/01/10 08:10:19;;;;;;;15.75;11.85;;;2.70;93.80;;;;;;5070592;28;20472;-70
2021/01/10 08:12:45;;;;;;;19.45;12.40;;;2.70;93.70;;;;;;5070854;28;20488;-68
2021/01/10 08:15:11;;;;;;;15.32;11.40;;;2.80;93.70;;;;;;5070903;28;20091;-70
2021/01/10 08:17:38;;;;;;;19.23;11.82;;;2.80;93.70;;;;;;5071323;28;20481;-68
2021/01/10 08:20:05;;;;;;;20.27;12.45;;;2.90;93.60;;;;;;5069645;28;20025;-69
2021/01/10 08:22:32;;;;;;;17.35;11.35;;;2.90;93.60;;;;;;5071491;28;20415;-72
2021/01/10 08:24:58;;;;;;;15.57;11.93;;;3.00;93.50;;;;;;5070877;28;20016;-71
2021/01/10 08:27:24;;;;;;;177.73;20.40;;;3.00;93.40;;;;;;5070718;28;20035;-70
2021/01/10 08:29:50;;;;;;;19.08;12.13;;;3.10;93.30;;;;;;5062256;28;20028;-69
2021/01/10 08:32:16;;;;;;;14.90;11.60;;;3.20;93.30;;;;;;5067251;28;20085;-68
2021/01/10 08:34:50;;;;;;;16.90;12.25;;;3.20;93.20;;;;;;5070766;28;20013;-67
2021/01/10 08:37:20;;;;;;;19.27;12.27;;;3.30;93.10;;;;;;5070506;28;20033;-70
2021/01/10 08:40:03;;;;;;;20.25;12.30;;;3.30;93.00;;;;;;5072963;28;20103;-69
2021/01/10 08:42:32;;;;;;;16.17;12.75;;;3.40;92.90;;;;;;5074575;28;20039;-69
2021/01/10 08:45:14;;;;;;;17.63;12.20;;;3.40;92.90;;;;;;5074447;28;20384;-70
2021/01/10 08:47:42;;;;;;;15.33;11.87;;;3.40;92.70;;;;;;5073666;28;20103;-68
2021/01/10 08:50:08;;;;;;;20.13;12.15;;;3.50;92.60;;;;;;5073736;28;20838;-78
2021/01/10 08:52:34;;;;;;;21.58;12.35;;;3.50;92.60;;;;;;5074216;28;20120;-71
2021/01/10 08:54:59;;;;;;;21.33;11.50;;;3.50;92.50;;;;;;5073067;28;20115;-70
2021/01/10 08:57:25;;;;;;;22.00;11.60;;;3.50;92.60;;;;;;5074381;28;20036;-70
2021/01/10 08:59:53;;;;;;;16.75;10.77;;;3.50;92.80;;;;;;5074097;28;20033;-70
2021/01/10 09:02:18;;;;;;;17.85;12.35;;;3.50;92.60;;;;;;5073211;28;20024;-70
2021/01/10 09:04:44;;;;;;;17.13;11.57;;;3.50;92.60;;;;;;5074024;28;20147;-71
2021/01/10 09:07:10;;;;;;;16.23;11.68;;;3.60;92.60;;;;;;5072283;28;20028;-73
2021/01/10 09:09:53;;;;;;;17.42;12.18;;;3.60;92.50;;;;;;5073198;28;20036;-78
2021/01/10 09:12:37;;;;;;;15.27;11.82;;;3.70;92.50;;;;;;5074269;28;20024;-77
2021/01/10 09:15:14;;;;;;;16.17;11.52;;;3.80;92.40;;;;;;5073431;28;20094;-76
2021/01/10 09:18:17;;;;;;;18.63;13.15;;;3.90;92.30;;;;;;5073507;28;20033;-79
2021/01/10 09:21:26;;;;;;;21.60;13.43;;;4.00;92.10;;;;;;5052232;28;20041;-80
2021/01/10 09:23:54;;;;;;;16.42;12.40;;;4.10;92.00;;;;;;5019274;28;20440;-73
2021/01/10 09:26:27;;;;;;;20.58;12.20;;;4.10;91.80;;;;;;5032047;28;20029;-84
2021/01/10 09:28:53;;;;;;;14.63;11.60;;;4.20;91.70;;;;;;5056023;28;20036;-77
2021/01/10 09:31:18;;;;;;;15.52;11.90;;;4.10;91.70;;;;;;5073873;28;20031;-86
2021/01/10 09:33:52;;;;;;;16.25;13.38;;;4.10;91.70;;;;;;5074228;28;20107;-85
2021/01/10 09:36:17;;;;;;;19.67;13.75;;;4.10;91.70;;;;;;5072349;28;20082;-83
2021/01/10 09:38:54;;;;;;;18.75;12.15;;;4.10;91.80;;;;;;5073946;28;20741;-76
2021/01/10 09:41:20;;;;;;;16.10;12.70;;;4.10;91.70;;;;;;5073354;28;20035;-74
2021/01/10 09:43:48;;;;;;;14.60;11.65;;;4.10;91.70;;;;;;5072258;28;20020;-70
2021/01/10 09:46:37;;;;;;;17.30;11.90;;;4.20;91.70;;;;;;5073361;28;20024;-70
2021/01/10 09:49:33;;;;;;;14.50;12.57;;;4.30;91.60;;;;;;5073120;28;20036;-70
2021/01/10 09:52:04;;;;;;;15.68;12.07;;;4.40;91.50;;;;;;5071901;28;20036;-70
2021/01/10 09:54:32;;;;;;;21.08;14.45;;;4.50;91.30;;;;;;5073798;28;20017;-70
2021/01/10 09:57:01;;;;;;;21.70;12.73;;;4.50;91.20;;;;;;5073431;28;20028;-70
2021/01/10 09:59:47;;;;;;;15.52;11.68;;;4.60;91.10;;;;;;5071384;28;20028;-70
2021/01/10 10:02:25;;;;;;;15.18;12.32;;;4.60;91.10;;;;;;5072380;28;20524;-69
2021/01/10 10:04:52;;;;;;;20.95;14.00;;;4.60;91.00;;;;;;5071909;28;20094;-70
2021/01/10 10:07:41;;;;;;;17.08;12.68;;;4.60;90.90;;;;;;5071065;28;20043;-69
2021/01/10 10:10:23;;;;;;;15.05;12.45;;;4.60;90.90;;;;;;5072882;28;20031;-71
2021/01/10 10:13:04;;;;;;;;;;;4.60;90.90;;;;;;5072579;28;20031;-70
2021/01/10 10:15:42;;;;;;;20.90;14.27;;;4.50;91.00;;;;;;5072805;28;20053;-71
2021/01/10 10:18:08;;;;;;;21.35;12.80;;;4.40;91.20;;;;;;5072503;28;20476;-71
2021/01/10 10:20:34;;;;;;;15.75;12.48;;;4.40;91.30;;;;;;5072070;28;20024;-72
2021/01/10 10:23:12;;;;;;;17.80;12.70;;;4.50;91.30;;;;;;5072393;28;20028;-71
2021/01/10 10:25:38;;;;;;;16.98;13.23;;;4.50;91.30;;;;;;5072516;28;20052;-72
2021/01/10 10:28:05;;;;;;;18.58;13.52;;;4.60;91.30;;;;;;5070860;28;20028;-71
2021/01/10 10:30:32;;;;;;;19.90;12.70;;;4.70;91.20;;;;;;5072772;28;20042;-70
2021/01/10 10:32:58;;;;;;;24.23;14.82;;;4.90;91.10;;;;;;5071793;28;20063;-75
2021/01/10 10:35:23;;;;;;;14.93;11.98;;;5.00;91.00;;;;;;5071924;28;20071;-73
2021/01/10 10:37:50;;;;;;;16.70;13.15;;;5.10;90.80;;;;;;5072586;28;20096;-74
2021/01/10 10:40:16;;;;;;;17.20;13.52;;;5.10;90.80;;;;;;5082177;28;20025;-73
2021/01/10 10:42:42;;;;;;;21.95;13.57;;;5.20;90.70;;;;;;5072543;28;20024;-70
2021/01/10 10:45:08;;;;;;;21.48;14.85;;;5.10;90.60;;;;;;5072108;28;20499;-69
2021/01/10 10:47:34;;;;;;;18.95;12.55;;;5.10;90.60;;;;;;5070033;28;20024;-74
2021/01/10 10:49:59;;;;;;;14.27;11.80;;;5.20;90.60;;;;;;5064972;28;20035;-69
2021/01/10 10:52:25;;;;;;;16.52;13.05;;;5.20;90.60;;;;;;5072255;28;20028;-69
2021/01/10 10:54:50;;;;;;;19.67;13.77;;;5.20;90.50;;;;;;5071681;28;20036;-69
2021/01/10 10:57:16;;;;;;;16.92;12.60;;;5.30;90.50;;;;;;5071969;28;20103;-70
2021/01/10 10:59:41;;;;;;;18.10;14.32;;;5.30;90.40;;;;;;5071769;28;20017;-70
2021/01/10 11:02:12;;;;;;;20.60;15.35;;;5.40;90.30;;;;;;5069786;28;20052;-70
2021/01/10 11:04:42;;;;;;;19.92;14.25;;;5.40;90.20;;;;;;5072229;28;20021;-71
2021/01/10 11:07:08;;;;;;;19.35;13.15;;;5.40;90.20;;;;;;5071145;28;20028;-72
2021/01/10 11:09:34;;;;;;;15.68;12.27;;;5.40;90.00;;;;;;5071274;28;20469;-72
2021/01/10 11:12:00;;;;;;;18.50;14.68;;;5.20;90.10;;;;;;5072202;28;20024;-73
2021/01/10 11:14:25;;;;;;;17.58;12.07;;;5.10;90.20;;;;;;5071774;28;20063;-73
2021/01/10 11:16:52;;;;;;;18.63;12.70;;;5.10;90.30;;;;;;5071543;28;20036;-73
2021/01/10 11:19:19;;;;;;;20.98;13.63;;;5.10;90.50;;;;;;5070706;28;20384;-71
2021/01/10 11:21:46;;;;;;;18.02;13.45;;;5.00;90.50;;;;;;5071544;28;20031;-74
2021/01/10 11:24:13;;;;;;;14.77;13.00;;;5.10;90.90;;;;;;5070419;28;20047;-74
2021/01/10 11:26:40;;;;;;;15.57;13.23;;;5.20;90.70;;;;;;5070899;28;20021;-75
2021/01/10 11:29:06;;;;;;;18.52;12.63;;;5.30;90.60;;;;;;5069572;28;20032;-74
2021/01/10 11:31:34;;;;;;;15.85;12.45;;;5.40;90.50;;;;;;5072331;28;20453;-75
2021/01/10 11:34:01;;;;;;;17.48;12.73;;;5.40;90.40;;;;;;5071899;28;20029;-74
2021/01/10 11:36:27;;;;;;;16.50;13.55;;;5.40;90.30;;;;;;5069736;28;20128;-75
2021/01/10 11:38:57;;;;;;;16.15;13.15;;;5.40;90.40;;;;;;5071665;28;20081;-74
2021/01/10 11:41:23;;;;;;;21.40;13.18;;;5.40;90.40;;;;;;5071698;28;20017;-74
2021/01/10 11:43:52;;;;;;;13.77;11.75;;;5.40;90.40;;;;;;5071265;28;20469;-73
2021/01/10 11:46:19;;;;;;;16.83;11.88;;;5.50;90.30;;;;;;5071606;28;20028;-74
2021/01/10 11:48:45;;;;;;;17.42;12.50;;;5.40;90.30;;;;;;5071722;28;20024;-73
2021/01/10 11:51:13;;;;;;;15.45;12.27;;;5.40;90.40;;;;;;5069516;28;20024;-74
2021/01/10 11:53:39;;;;;;;17.63;13.30;;;5.40;90.50;;;;;;5071971;28;20025;-74
2021/01/10 11:56:05;;;;;;;15.65;12.00;;;5.40;90.50;;;;;;5071365;28;20048;-73
2021/01/10 11:58:31;;;;;;;16.08;12.15;;;5.40;90.50;;;;;;5071312;28;20465;-74
2021/01/10 12:00:56;;;;;;;17.90;12.63;;;5.30;90.60;;;;;;5071515;28;20051;-72
2021/01/10 12:03:25;;;;;;;16.10;12.18;;;5.40;90.60;;;;;;5071460;28;20028;-74
2021/01/10 12:05:51;;;;;;;14.52;11.27;;;5.40;90.60;;;;;;5070938;28;20033;-73
2021/01/10 12:08:17;;;;;;;20.40;12.30;;;5.50;90.60;;;;;;5071296;28;20020;-74
2021/01/10 12:10:43;;;;;;;18.60;11.40;;;5.50;90.50;;;;;;5071542;28;20021;-73
2021/01/10 12:13:09;;;;;;;19.27;11.50;;;5.60;90.40;;;;;;5070713;28;20081;-74
2021/01/10 12:15:35;;;;;;;14.77;11.10;;;5.70;90.30;;;;;;5075232;28;20084;-73
2021/01/10 12:18:03;;;;;;;15.07;9.98;;;5.70;90.30;;;;;;5074582;28;20067;-73
2021/01/10 12:20:28;;;;;;;15.52;11.65;;;5.70;90.20;;;;;;5075507;28;20025;-74
2021/01/10 12:22:54;;;;;;;13.32;10.75;;;5.60;90.20;;;;;;5075072;28;20522;-74
2021/01/10 12:25:20;;;;;;;16.40;10.90;;;5.60;90.30;;;;;;5074396;28;20434;-75
2021/01/10 12:27:47;;;;;;;24.38;12.35;;;5.50;90.30;;;;;;5075199;28;20075;-73
2021/01/10 12:30:13;;;;;;;14.68;11.55;;;5.50;90.40;;;;;;5074635;28;20123;-74
2021/01/10 12:32:39;;;;;;;17.98;11.93;;;5.50;90.50;;;;;;5074558;28;20063;-74
2021/01/10 12:35:06;;;;;;;14.50;10.32;;;5.50;90.50;;;;;;5074365;28;20052;-74
2021/01/10 12:37:32;;;;;;;14.23;9.52;;;5.50;90.60;;;;;;5074833;28;20046;-74
2021/01/10 12:39:58;;;;;;;13.18;8.52;;;5.50;90.60;;;;;;5074079;28;20103;-73
2021/01/10 12:42:24;;;;;;;9.80;8.35;;;5.50;90.60;;;;;;5074772;28;20142;-73
2021/01/10 12:44:52;;;;;;;11.07;8.45;;;5.50;90.50;;;;;;5074916;28;20068;-74
2021/01/10 12:47:17;;;;;;;10.48;7.15;;;5.50;90.50;;;;;;5072536;28;20017;-74